Latest Weather Observations for Geraldton Airport

IDW60801

Issued at 7:03 am WST Saturday 31 January 2015 (issued every 30 minutes, with the page automatically refreshed every 10 minutes)

About weather observations | Map of weather stations | Latest weather observations for WA | Other Formats
Station Details ID: 008315 Name: GERALDTON AIRPORT Lat: -28.80 Lon: 114.70 Height: 29.7 m
Data from the previous 72 hours. | See also: Recent months at Geraldton Airport
Date/Time
WST
Temp
°C
App
Temp
°C
Dew
Point
Rel
Hum
%
Delta-T
°C
Wind Press
QNH
hPa
Press
MSL
hPa
Rain
since 9 am
mm
Dir
 
Spd
km/h
Gust
km/h
Spd
kts
Gust
kts
31/06:30am 26.0 25.2 13.9 47 7.2 ESE 11 17 6 9 1009.9 - 0.0
31/05:30am 26.5 23.4 13.5 44 7.7 E 22 28 12 15 1009.7 - 0.0
31/05:00am 25.7 25.8 12.6 44 7.6 W 4 13 2 7 1009.3 - 0.0
31/04:30am 25.9 25.1 12.9 44 7.6 S 9 13 5 7 1008.9 - 0.0
31/04:00am 26.4 25.1 12.5 42 8.1 ENE 11 17 6 9 1008.2 - 0.0
31/03:30am 26.2 25.5 13.2 44 7.6 NE 9 13 5 7 1007.9 - 0.0
31/03:00am 26.5 24.9 12.8 42 8.0 E 13 19 7 10 1008.1 1008.0 0.0
31/02:30am 26.5 25.7 13.9 45 7.5 NE 11 20 6 11 1008.1 - 0.0
31/02:00am 26.7 25.5 13.9 45 7.6 NE 13 22 7 12 1008.4 - 0.0
31/01:30am 27.2 24.0 13.1 41 8.3 E 22 43 12 23 1008.5 - 0.0
31/01:08am 27.2 21.4 12.6 40 8.5 E 35 54 19 29 1007.9 - 0.0
31/01:00am 27.2 20.6 12.6 40 8.5 E 39 54 21 29 1007.7 - 0.0
31/12:30am 27.3 21.3 13.3 42 8.3 E 37 48 20 26 1007.8 - 0.0
31/12:01am 27.6 19.1 13.1 40 8.5 E 50 65 27 35 1007.6 - 0.0
31/12:00am 27.6 19.1 13.1 40 8.6 E 50 65 27 35 1007.6 1007.5 0.0
 
Date/Time
WST
Temp
°C
App
Temp
°C
Dew
Point
Rel
Hum
%
Delta-T
°C
Wind Press
QNH
hPa
Press
MSL
hPa
Rain
since 9 am
mm
Dir
 
Spd
km/h
Gust
km/h
Spd
kts
Gust
kts
30/11:47pm 28.1 20.2 12.7 38 9.0 E 46 61 25 33 1007.5 - 0.0
30/11:31pm 28.5 20.7 11.8 35 9.7 ENE 44 65 24 35 1007.6 - 0.0
30/11:30pm 28.5 20.9 11.8 35 9.7 ENE 43 59 23 32 1007.7 - 0.0
30/11:00pm 28.4 20.7 12.1 36 9.5 ENE 44 59 24 32 1008.2 - 0.0
30/10:30pm 27.7 20.5 13.8 42 8.3 ENE 44 57 24 31 1009.1 - 0.0
30/10:01pm 28.6 22.1 12.8 37 9.3 NE 39 59 21 32 1009.3 - 0.0
30/10:00pm 28.6 22.0 12.6 37 9.4 NE 39 52 21 28 1009.3 - 0.0
30/09:40pm 29.4 22.1 11.4 32 10.4 ENE 41 61 22 33 1009.1 - 0.0
30/09:30pm 29.1 21.6 12.0 34 10.0 ENE 43 56 23 30 1009.0 - 0.0
30/09:11pm 28.6 23.9 13.3 39 9.1 NE 30 50 16 27 1009.1 - 0.0
30/09:00pm 25.4 28.5 18.6 66 4.3 CALM 0 0 0 0 1008.5 1008.4 0.0
30/08:56pm 25.3 27.9 18.4 65 4.4 ESE 2 6 1 3 1008.5 - 0.0
30/08:44pm 25.5 27.2 18.6 65 4.4 ESE 7 11 4 6 1008.3 - 0.0
30/08:30pm 25.5 26.0 18.3 64 4.6 SE 13 15 7 8 1007.9 - 0.0
30/08:00pm 25.7 27.5 18.3 63 4.7 SSE 6 9 3 5 1007.3 - 0.0
30/07:30pm 26.3 26.2 17.9 60 5.3 S 15 20 8 11 1007.0 - 0.0
30/07:00pm 27.1 26.0 17.4 55 6.1 S 19 24 10 13 1006.7 - 0.0
30/06:30pm 28.2 25.8 15.5 46 7.8 S 22 30 12 16 1006.3 - 0.0
30/06:00pm 29.3 26.2 14.5 40 9.0 S 24 32 13 17 1006.3 1006.2 0.0
30/05:30pm 30.4 26.5 13.2 35 10.3 S 26 33 14 18 1006.6 - 0.0
30/05:00pm 30.1 26.2 15.6 41 9.0 S 30 41 16 22 1006.3 - 0.0
30/04:30pm 31.7 29.1 15.9 38 9.9 SSW 24 28 13 15 1005.8 - 0.0
30/04:00pm 30.5 28.0 16.2 42 8.9 SW 24 30 13 16 1006.1 - 0.0
30/03:30pm 31.3 28.4 16.0 39 9.6 S 26 33 14 18 1006.6 - 0.0
30/03:00pm 31.7 29.2 17.1 41 9.3 SSW 26 33 14 18 1006.8 1006.7 0.0
30/02:30pm 31.0 29.0 17.4 44 8.7 SSW 24 32 13 17 1007.2 - 0.0
30/02:00pm 30.1 28.3 17.9 48 7.8 SSW 24 32 13 17 1007.6 - 0.0
30/01:30pm 29.8 29.1 19.4 53 6.8 SSW 22 30 12 16 1007.9 - 0.0
30/01:00pm 30.2 28.9 19.1 51 7.2 SSW 24 32 13 17 1008.0 - 0.0
30/12:30pm 30.1 28.9 18.5 49 7.5 SSW 22 30 12 16 1008.5 - 0.0
30/12:00pm 28.8 28.1 18.6 54 6.6 SSW 20 30 11 16 1009.0 1008.8 0.0
30/11:30am 27.9 26.7 19.3 59 5.6 SSW 24 30 13 16 1009.2 - 0.0
30/11:00am 27.8 26.9 19.0 58 5.7 SSW 22 28 12 15 1009.6 - 0.0
30/10:30am 27.8 26.9 19.8 61 5.2 SW 24 35 13 19 1009.8 - 0.0
30/10:00am 27.8 27.3 20.0 62 5.1 SW 22 28 12 15 1010.0 - 0.0
30/09:30am 29.1 29.1 20.2 58 5.9 SW 20 26 11 14 1009.9 - 0.0
30/09:00am 28.3 29.4 18.1 54 6.5 S 9 15 5 8 1010.1 1009.9 0.0
30/08:30am 26.4 28.7 19.4 65 4.5 SE 6 13 3 7 1010.1 - 0.0
30/08:00am 24.6 27.0 20.0 75 3.0 SSE 7 11 4 6 1009.8 - 0.0
30/07:30am 23.2 24.7 20.6 85 1.7 SSE 13 19 7 10 1009.7 - 0.0
30/07:00am 22.2 22.5 20.5 90 1.1 SSE 19 24 10 13 1009.9 - 0.0
30/06:30am 21.9 23.8 20.6 92 0.8 SE 11 17 6 9 1009.5 - 0.0
30/06:00am 22.0 24.3 20.6 92 0.9 SE 9 13 5 7 1009.2 1009.0 0.0
30/05:50am 22.3 24.0 20.9 92 0.9 SE 13 17 7 9 1009.3 - 0.0
30/05:30am 22.4 25.3 21.1 92 0.9 E 7 11 4 6 1009.2 - 0.0
30/05:00am 22.5 24.8 21.3 93 0.8 S 11 15 6 8 1008.8 - 0.0
30/04:30am 22.4 24.6 21.2 93 0.8 SSE 11 13 6 7 1008.3 - 0.0
30/04:00am 22.4 24.2 21.2 93 0.8 S 13 19 7 10 1008.2 - 0.0
30/03:30am 22.4 24.5 21.0 92 0.9 S 11 17 6 9 1007.9 - 0.0
30/03:00am 22.1 23.8 20.9 93 0.8 SSE 13 17 7 9 1008.1 1008.0 0.0
30/02:30am 22.0 24.8 20.8 93 0.8 SSE 7 9 4 5 1008.1 - 0.0
30/02:00am 21.6 25.1 20.4 93 0.8 E 2 6 1 3 1008.3 - 0.0
30/01:30am 20.9 24.6 19.9 94 0.6 CALM 0 0 0 0 1008.3 - 0.0
30/01:00am 21.5 23.7 20.3 93 0.8 SSW 9 9 5 5 1008.3 - 0.0
30/12:30am 22.0 24.0 20.8 93 0.8 S 11 15 6 8 1008.2 - 0.0
30/12:00am 21.7 23.5 20.3 92 0.9 SSW 11 15 6 8 1008.5 1008.4 0.0
 
Date/Time
WST
Temp
°C
App
Temp
°C
Dew
Point
Rel
Hum
%
Delta-T
°C
Wind Press
QNH
hPa
Press
MSL
hPa
Rain
since 9 am
mm
Dir
 
Spd
km/h
Gust
km/h
Spd
kts
Gust
kts
29/11:41pm 21.5 23.6 20.1 92 0.9 SSW 9 13 5 7 1008.6 - 0.0
29/11:30pm 21.7 24.2 20.2 91 1.0 SW 7 11 4 6 1008.6 - 0.0
29/11:18pm 21.9 24.4 20.2 90 1.1 SW 7 11 4 6 1008.9 - 0.0
29/11:00pm 22.2 24.4 20.4 89 1.2 SSW 9 13 5 7 1009.3 - 0.0
29/10:30pm 22.8 23.6 20.6 87 1.4 S 17 20 9 11 1009.6 - 0.0
29/10:00pm 23.0 23.4 20.7 87 1.5 S 19 24 10 13 1009.6 - 0.0
29/09:32pm 22.9 23.2 20.4 86 1.6 S 19 24 10 13 1009.7 - 0.0
29/09:30pm 22.9 23.2 20.3 85 1.7 S 19 26 10 14 1009.8 - 0.0
29/09:09pm 23.0 23.3 20.3 85 1.7 SSE 19 26 10 14 1009.6 - 0.0
29/09:00pm 22.9 23.5 20.3 85 1.7 SSE 17 24 9 13 1010.1 1009.9 0.0
29/08:59pm 22.9 23.5 20.3 85 1.7 SSE 17 20 9 11 1010.1 - 0.0
29/08:33pm 22.6 23.5 20.1 86 1.6 SSE 15 20 8 11 1009.5 - 0.0
29/08:30pm 22.5 23.5 20.2 87 1.5 SE 15 20 8 11 1009.4 - 0.0
29/08:03pm 22.4 23.3 20.1 87 1.5 SSE 15 22 8 12 1009.3 - 0.0
29/08:00pm 22.3 22.8 20.1 87 1.4 S 17 24 9 13 1009.0 - 0.0
29/07:55pm 22.3 22.2 19.9 86 1.5 S 20 26 11 14 1008.6 - 0.0
29/07:30pm 22.5 22.0 19.9 85 1.7 S 22 30 12 16 1008.3 - 0.0
29/07:00pm 23.0 22.4 19.7 82 2.1 S 22 28 12 15 1008.0 - 0.0
29/06:30pm 23.8 22.6 19.3 76 2.9 S 24 30 13 16 1007.6 - 0.0
29/06:00pm 24.9 23.9 18.9 69 3.8 S 22 30 12 16 1007.5 1007.4 0.0
29/05:30pm 25.1 23.0 19.0 69 3.9 S 28 37 15 20 1007.6 - 0.0
29/05:00pm 25.3 22.2 18.9 67 4.1 S 33 44 18 24 1007.3 - 0.0
29/04:30pm 24.2 20.9 19.2 73 3.2 S 35 44 19 24 1007.0 - 0.0
29/04:00pm 24.5 21.2 19.2 72 3.4 S 35 44 19 24 1006.7 - 0.0
29/03:30pm 24.9 21.3 19.3 71 3.6 S 37 44 20 24 1006.5 - 0.0
29/03:24pm 25.1 21.4 19.2 70 3.8 S 37 44 20 24 1006.5 - 0.0
29/03:17pm 25.7 22.9 19.4 68 4.1 SSW 33 41 18 22 1006.6 - 0.0
29/03:00pm 26.1 23.1 19.1 65 4.5 SSW 33 43 18 23 1006.6 1006.5 0.0
29/02:30pm 25.9 22.8 18.9 65 4.5 SSW 33 44 18 24 1007.0 - 0.0
29/02:00pm 26.5 23.5 19.1 64 4.8 SSW 33 46 18 25 1007.5 - 0.0
29/01:30pm 26.4 23.5 19.2 64 4.6 SSW 33 41 18 22 1007.9 - 0.0
29/01:00pm 26.7 24.2 18.9 62 5.0 SSW 30 37 16 20 1008.3 - 0.0
29/12:30pm 27.0 24.9 18.9 61 5.2 S 28 39 15 21 1008.6 - 0.0
29/12:00pm 27.0 24.6 19.0 61 5.2 S 30 39 16 21 1008.9 1008.7 0.0
29/11:30am 25.7 23.2 18.9 66 4.3 S 30 37 16 20 1009.2 - 0.0
29/11:00am 26.1 24.0 18.9 64 4.6 S 28 37 15 20 1009.3 - 0.0
29/10:30am 25.8 23.8 19.2 67 4.2 S 28 39 15 21 1009.2 - 0.0
29/10:00am 26.2 24.6 19.1 65 4.6 S 26 35 14 19 1009.2 - 0.0
29/09:30am 24.3 22.4 19.3 73 3.2 SSW 28 33 15 18 1009.2 - 0.0
29/09:00am 24.4 22.9 19.4 73 3.2 S 26 35 14 19 1009.0 1008.8 0.0
29/08:30am 24.1 22.7 19.6 76 2.9 S 26 32 14 17 1009.1 - 0.0
29/08:00am 23.5 22.6 19.8 80 2.4 S 24 33 13 18 1008.9 - 0.0
29/07:30am 23.1 22.5 19.7 81 2.2 S 22 30 12 16 1008.8 - 0.0
29/07:00am 22.6 21.5 19.5 82 2.0 S 24 32 13 17 1008.5 - 0.0
29/06:30am 22.3 22.1 19.7 85 1.7 S 20 28 11 15 1008.2 - 0.0
29/06:00am 22.1 21.1 19.6 86 1.6 S 24 32 13 17 1008.0 1007.9 0.0
29/05:49am 22.1 21.1 19.6 86 1.6 S 24 32 13 17 1008.0 - 0.0
29/05:30am 22.2 21.2 19.6 85 1.7 S 24 32 13 17 1008.1 - 0.0
29/05:00am 22.4 22.1 19.5 84 1.9 S 20 24 11 13 1008.0 - 0.0
29/04:30am 22.4 22.3 19.5 84 1.9 S 19 22 10 12 1007.7 - 0.0
29/04:00am 22.3 21.9 19.4 83 1.8 S 20 26 11 14 1007.2 - 0.0
29/03:30am 22.2 22.0 19.3 83 1.8 S 19 22 10 12 1007.0 - 0.0
29/03:00am 22.4 22.3 19.5 84 1.9 S 19 24 10 13 1007.0 1006.9 0.0
29/02:30am 22.3 21.9 19.4 83 1.8 S 20 26 11 14 1007.0 - 0.0
29/02:00am 22.3 22.1 19.3 83 1.9 S 19 26 10 14 1007.1 - 0.0
29/01:30am 22.4 22.2 19.3 82 2.0 S 19 26 10 14 1007.2 - 0.0
29/01:00am 22.4 22.1 19.2 82 2.0 S 19 26 10 14 1007.5 - 0.0
29/12:30am 22.4 21.6 19.3 82 2.0 S 22 28 12 15 1007.7 - 0.0
29/12:00am 22.5 22.2 19.2 81 2.1 S 19 28 10 15 1008.4 1008.3 0.0
 
Date/Time
WST
Temp
°C
App
Temp
°C
Dew
Point
Rel
Hum
%
Delta-T
°C
Wind Press
QNH
hPa
Press
MSL
hPa
Rain
since 9 am
mm
Dir
 
Spd
km/h
Gust
km/h
Spd
kts
Gust
kts
28/11:30pm 22.4 22.1 19.1 81 2.1 S 19 26 10 14 1008.4 - 0.0
28/11:00pm 22.5 22.5 19.0 80 2.2 S 17 22 9 12 1008.5 - 0.0
28/10:30pm 22.4 22.0 19.0 81 2.2 S 19 24 10 13 1008.4 - 0.0
28/10:00pm 22.8 22.5 19.2 80 2.3 S 19 24 10 13 1008.2 - 0.0
28/09:30pm 22.9 22.6 19.2 79 2.4 S 19 24 10 13 1008.3 - 0.0
28/09:00pm 22.9 22.6 19.2 79 2.4 S 19 26 10 14 1008.1 1008.0 0.0
28/08:30pm 23.2 23.1 19.5 80 2.4 SSW 19 26 10 14 1007.8 - 0.0
28/08:00pm 23.3 22.5 19.2 78 2.6 S 22 32 12 17 1007.7 - 0.0
28/07:30pm 23.3 21.8 19.4 79 2.5 SSW 26 32 14 17 1007.2 - 0.0
28/07:00pm 23.3 22.3 19.6 80 2.4 SSW 24 32 13 17 1006.9 - 0.0
28/06:30pm 23.6 22.6 19.7 79 2.5 SW 24 33 13 18 1006.6 - 0.0
28/06:10pm 23.6 22.2 19.6 78 2.6 SW 26 33 14 18 1006.2 - 0.0
28/06:00pm 24.2 23.6 19.8 76 2.8 SW 22 32 12 17 1006.1 1006.0 0.0
28/05:30pm 24.8 24.2 19.7 73 3.3 SW 22 30 12 16 1005.9 - 0.0
28/05:00pm 25.4 24.4 19.7 70 3.7 SW 24 32 13 17 1005.9 - 0.0
28/04:45pm 25.2 23.9 19.8 72 3.5 SW 26 33 14 18 1006.0 - 0.0
28/04:30pm 26.1 24.3 19.6 67 4.2 WSW 28 33 15 18 1005.9 - 0.0
28/04:00pm 26.5 24.7 19.6 66 4.5 WSW 28 33 15 18 1006.0 - 0.0
28/03:30pm 26.9 25.2 19.9 65 4.6 WSW 28 37 15 20 1006.3 - 0.0
28/03:00pm 27.5 26.2 19.9 63 5.0 WSW 26 32 14 17 1006.4 1006.3 0.0
28/02:30pm 27.8 26.8 19.7 61 5.3 W 24 33 13 18 1006.4 - 0.0
28/02:00pm 28.2 26.4 19.5 59 5.7 W 28 37 15 20 1006.3 - 0.0
28/01:30pm 28.1 26.3 19.6 60 5.5 W 28 35 15 19 1006.6 - 0.0
28/01:00pm 28.6 26.6 19.2 56 6.1 W 28 37 15 20 1006.6 - 0.0
28/12:30pm 30.1 28.4 18.9 51 7.3 W 26 33 14 18 1006.8 - 0.0
28/12:00pm 29.2 27.0 18.8 53 6.7 W 28 33 15 18 1007.1 1007.0 0.0
28/11:30am 28.6 27.5 18.7 55 6.4 W 22 32 12 17 1007.3 - 0.0
28/11:00am 29.1 28.3 19.3 55 6.4 WSW 22 26 12 14 1007.3 - 0.0
28/10:30am 28.9 28.9 19.8 58 6.0 W 19 26 10 14 1007.3 - 0.0
28/10:00am 28.9 29.7 19.1 55 6.3 NW 13 19 7 10 1007.5 - 0.0
28/09:30am 27.8 28.5 19.7 61 5.3 WNW 15 20 8 11 1007.4 - 0.0
28/09:00am 27.5 28.3 19.9 63 5.0 NW 15 20 8 11 1007.2 1007.1 0.0
28/08:30am 25.8 27.6 20.3 71 3.6 NW 11 17 6 9 1007.3 - 0.0
28/08:00am 25.0 26.8 20.4 75 3.0 NNW 11 19 6 10 1007.3 - 0.0
28/07:30am 24.1 26.1 20.7 81 2.2 N 11 15 6 8 1007.1 - 0.0

Other Formats:

Comma delimited format used in spreadsheet applications
http://www.bom.gov.au/fwo/IDW60801/IDW60801.94403.axf

JavaScript Object Notation format (JSON) in row-major order
http://www.bom.gov.au/fwo/IDW60801/IDW60801.94403.json